Time;durP1;ratioP1;P1;durP2;ratioP2;P2;SDS_P1;SDS_P2;PMS_P1;PMS_P2;Temp;Humidity;BMP_temperature;BMP_pressure;BME280_temperature;BME280_humidity;BME280_pressure;Samples;Min_cycle;Max_cycle;Signal;HPM_P1;HPM_P2
2023/10/08 00:01:12;;;;;;;12.30;4.40;;;18.10;45.40;;;;;;5115771;28;20456;-72
2023/10/08 00:03:40;;;;;;;8.60;4.10;;;18.10;45.10;;;;;;5115730;28;20448;-72
2023/10/08 00:06:13;;;;;;;11.77;4.47;;;18.00;46.70;;;;;;5115924;28;20448;-72
2023/10/08 00:08:40;;;;;;;10.50;4.20;;;17.90;47.80;;;;;;5116050;28;20452;-72
2023/10/08 00:11:07;;;;;;;12.50;5.00;;;17.90;47.40;;;;;;5115812;28;20448;-72
2023/10/08 00:13:39;;;;;;;12.53;4.23;;;17.80;48.20;;;;;;5115734;28;20955;-73
2023/10/08 00:16:09;;;;;;;15.37;5.07;;;17.80;46.00;;;;;;5115550;28;20455;-72
2023/10/08 00:18:37;;;;;;;9.03;4.67;;;17.90;42.60;;;;;;5115645;28;20452;-73
2023/10/08 00:21:16;;;;;;;10.53;4.90;;;17.90;44.80;;;;;;5115586;28;20846;-72
2023/10/08 00:23:52;;;;;;;8.60;4.30;;;17.90;42.50;;;;;;5115614;27;20460;-72
2023/10/08 00:26:27;;;;;;;11.00;4.87;;;18.00;42.50;;;;;;5115633;28;20476;-72
2023/10/08 00:28:55;;;;;;;14.40;5.93;;;18.00;42.60;;;;;;5114831;28;20535;-72
2023/10/08 00:31:25;;;;;;;12.30;4.93;;;18.00;42.80;;;;;;5115324;28;20954;-72
2023/10/08 00:33:54;;;;;;;9.80;4.27;;;17.90;46.40;;;;;;5115385;28;20444;-72
2023/10/08 00:36:21;;;;;;;7.70;4.03;;;17.80;46.80;;;;;;5115240;28;20506;-72
2023/10/08 00:38:50;;;;;;;10.70;3.90;;;17.90;45.40;;;;;;5115236;28;20456;-72
2023/10/08 00:41:21;;;;;;;10.70;4.73;;;17.80;46.20;;;;;;5115459;28;20463;-72
2023/10/08 00:43:48;;;;;;;10.87;4.60;;;17.90;42.50;;;;;;5114949;28;20818;-72
2023/10/08 00:46:22;;;;;;;9.90;4.30;;;17.80;43.40;;;;;;5115150;28;20484;-72
2023/10/08 00:48:53;;;;;;;11.60;4.57;;;17.80;43.90;;;;;;5114979;28;20449;-72
2023/10/08 00:51:31;;;;;;;9.33;4.40;;;17.80;42.30;;;;;;5115427;28;20452;-72
2023/10/08 00:54:06;;;;;;;8.87;4.13;;;17.80;42.40;;;;;;5115318;28;20452;-72
2023/10/08 00:56:50;;;;;;;9.97;4.20;;;17.80;42.30;;;;;;5114945;28;20450;-72
2023/10/08 00:59:20;;;;;;;11.07;4.47;;;17.80;42.30;;;;;;5114888;28;20860;-72
2023/10/08 01:01:51;;;;;;;16.13;5.20;;;17.80;42.30;;;;;;5114983;28;20797;-72
2023/10/08 01:04:23;;;;;;;10.23;5.63;;;17.70;42.30;;;;;;5114561;28;20544;-72
2023/10/08 01:06:54;;;;;;;11.37;4.37;;;17.60;42.20;;;;;;5114911;28;20513;-72
2023/10/08 01:09:31;;;;;;;10.70;3.93;;;17.60;43.00;;;;;;5114647;28;20468;-72
2023/10/08 01:12:15;;;;;;;9.80;4.73;;;17.50;42.10;;;;;;5114563;28;20489;-72
2023/10/08 01:14:47;;;;;;;10.93;4.57;;;17.30;42.10;;;;;;5114768;28;20541;-72
2023/10/08 01:17:16;;;;;;;9.17;5.50;;;17.20;44.60;;;;;;5114567;28;20484;-72
2023/10/08 01:19:45;;;;;;;13.00;5.10;;;17.20;44.60;;;;;;5114208;28;20449;-72
2023/10/08 01:22:18;;;;;;;11.53;4.90;;;17.10;43.80;;;;;;5114281;28;20445;-72
2023/10/08 01:24:47;;;;;;;10.00;4.80;;;17.10;45.70;;;;;;5114366;28;20452;-72
2023/10/08 01:27:20;;;;;;;9.40;4.33;;;17.00;46.40;;;;;;5114583;28;20543;-72
2023/10/08 01:29:47;;;;;;;12.80;4.27;;;16.90;47.30;;;;;;5114430;28;20508;-72
2023/10/08 01:32:16;;;;;;;15.00;6.80;;;16.90;48.20;;;;;;5114204;28;20471;-72
2023/10/08 01:34:45;;;;;;;15.00;6.17;;;16.80;50.10;;;;;;5114602;28;21001;-72
2023/10/08 01:37:16;;;;;;;15.40;5.43;;;16.70;50.10;;;;;;5114273;28;20455;-72
2023/10/08 01:39:45;;;;;;;9.03;3.90;;;16.70;50.10;;;;;;5114039;28;20441;-72
2023/10/08 01:42:17;;;;;;;10.20;4.13;;;16.70;50.10;;;;;;5102800;28;20472;-72
2023/10/08 01:44:47;;;;;;;10.83;4.60;;;16.60;50.10;;;;;;5114267;28;20518;-72
2023/10/08 01:47:15;;;;;;;10.90;3.83;;;16.60;50.10;;;;;;5114113;28;20452;-72
2023/10/08 01:49:44;;;;;;;11.60;4.73;;;16.50;50.00;;;;;;5114212;28;20475;-72
2023/10/08 01:52:16;;;;;;;11.53;5.10;;;16.60;50.10;;;;;;5114232;28;20543;-72
2023/10/08 01:54:45;;;;;;;11.90;5.10;;;16.50;50.00;;;;;;5114244;28;20900;-72
2023/10/08 01:57:12;;;;;;;8.90;4.57;;;16.60;50.10;;;;;;5114097;28;20446;-72
2023/10/08 01:59:39;;;;;;;9.10;4.17;;;16.50;50.00;;;;;;5113740;28;20450;-72
2023/10/08 02:02:06;;;;;;;16.83;4.50;;;16.50;50.00;;;;;;5113847;28;20440;-72
2023/10/08 02:04:35;;;;;;;11.77;4.43;;;16.40;49.80;;;;;;5113702;28;20447;-72
2023/10/08 02:07:03;;;;;;;11.20;5.73;;;16.30;49.80;;;;;;5114005;28;20454;-72
2023/10/08 02:09:33;;;;;;;14.00;6.20;;;16.40;49.80;;;;;;5113664;27;20485;-72
2023/10/08 02:12:03;;;;;;;11.17;5.33;;;16.40;49.80;;;;;;5113600;28;20455;-72
2023/10/08 02:14:31;;;;;;;11.33;4.50;;;16.40;49.80;;;;;;5112970;28;20883;-72
2023/10/08 02:17:03;;;;;;;9.43;4.50;;;16.40;49.80;;;;;;5113612;28;20474;-72
2023/10/08 02:19:30;;;;;;;11.67;4.30;;;16.40;49.80;;;;;;5112743;28;20975;-72
2023/10/08 02:21:58;;;;;;;10.90;4.20;;;16.30;49.70;;;;;;5112945;28;20572;-72
2023/10/08 02:24:26;;;;;;;13.20;5.70;;;16.30;49.80;;;;;;5112892;28;20458;-72
2023/10/08 02:26:54;;;;;;;8.80;4.07;;;16.20;49.70;;;;;;5112969;28;20456;-72
2023/10/08 02:29:26;;;;;;;8.30;3.90;;;16.30;49.70;;;;;;5112908;28;20487;-72
2023/10/08 02:31:53;;;;;;;12.43;4.77;;;16.40;49.80;;;;;;5113144;28;20483;-72
2023/10/08 02:34:21;;;;;;;10.17;4.50;;;16.40;49.10;;;;;;5112822;28;20455;-72
2023/10/08 02:36:48;;;;;;;9.13;4.67;;;16.40;46.70;;;;;;5112949;28;20544;-72
2023/10/08 02:39:21;;;;;;;9.47;4.20;;;16.50;45.30;;;;;;5112911;28;20452;-72
2023/10/08 02:41:49;;;;;;;10.00;4.43;;;16.60;46.80;;;;;;5112992;28;20542;-72
2023/10/08 02:44:16;;;;;;;11.83;5.20;;;16.60;46.60;;;;;;5112478;28;20573;-72
2023/10/08 02:46:47;;;;;;;7.90;4.10;;;16.60;45.40;;;;;;5112768;28;20544;-72
2023/10/08 02:49:20;;;;;;;10.50;4.57;;;16.60;46.50;;;;;;5113361;28;20924;-72
2023/10/08 02:51:50;;;;;;;9.93;4.50;;;16.60;48.10;;;;;;5113129;28;20469;-72
2023/10/08 02:54:17;;;;;;;10.90;4.03;;;16.50;48.30;;;;;;5112824;28;20456;-72
2023/10/08 02:56:46;;;;;;;9.93;3.80;;;16.50;48.20;;;;;;5112998;27;20474;-72
2023/10/08 02:59:14;;;;;;;14.00;4.73;;;16.50;46.10;;;;;;5112864;28;20542;-72
2023/10/08 03:01:41;;;;;;;13.17;5.83;;;16.50;49.20;;;;;;5112639;28;20639;-72
2023/10/08 03:04:18;;;;;;;8.57;4.17;;;16.40;49.80;;;;;;5112584;28;20526;-73
2023/10/08 03:06:49;;;;;;;15.33;4.90;;;16.30;49.80;;;;;;5112786;28;20447;-72
2023/10/08 03:09:23;;;;;;;9.10;4.63;;;16.20;49.70;;;;;;5112475;28;20449;-72
2023/10/08 03:11:50;;;;;;;14.90;5.23;;;16.20;49.70;;;;;;5112302;28;20471;-72
2023/10/08 03:14:22;;;;;;;11.03;5.27;;;16.10;49.60;;;;;;5112472;28;20516;-72
2023/10/08 03:16:51;;;;;;;10.20;4.63;;;16.10;49.60;;;;;;5112478;28;20448;-72
2023/10/08 03:19:21;;;;;;;9.60;4.47;;;16.10;49.60;;;;;;5112305;28;20456;-72
2023/10/08 03:21:55;;;;;;;11.37;4.63;;;16.20;49.70;;;;;;5112448;28;20505;-72
2023/10/08 03:24:37;;;;;;;16.50;5.23;;;16.30;49.60;;;;;;5112042;28;20462;-72
2023/10/08 03:27:12;;;;;;;12.90;5.90;;;16.30;47.90;;;;;;5092276;28;20445;-72
2023/10/08 03:29:41;;;;;;;12.03;5.40;;;16.30;46.50;;;;;;5101882;28;20501;-72
2023/10/08 03:32:13;;;;;;;16.07;5.40;;;16.20;49.60;;;;;;5115820;28;20486;-72
2023/10/08 03:34:46;;;;;;;9.90;4.30;;;16.10;49.60;;;;;;5116953;28;20853;-72
2023/10/08 03:37:19;;;;;;;10.43;4.50;;;16.00;49.50;;;;;;5116899;28;20456;-72
2023/10/08 03:40:00;;;;;;;10.40;4.53;;;16.10;49.60;;;;;;5116626;28;20537;-72
2023/10/08 03:42:33;;;;;;;13.67;4.93;;;16.00;49.50;;;;;;5116350;28;20450;-72
2023/10/08 03:45:10;;;;;;;10.50;4.80;;;16.10;49.60;;;;;;5116683;28;20451;-72
2023/10/08 03:47:38;;;;;;;11.07;4.97;;;16.10;49.60;;;;;;5117189;28;20457;-72
2023/10/08 03:50:09;;;;;;;12.53;5.70;;;16.10;49.60;;;;;;5116917;28;20471;-72
2023/10/08 03:52:38;;;;;;;9.47;3.97;;;16.10;49.60;;;;;;5116476;28;20450;-72
2023/10/08 03:55:13;;;;;;;11.37;5.30;;;16.20;49.60;;;;;;5116599;28;20527;-72
2023/10/08 03:57:44;;;;;;;13.27;5.43;;;16.20;49.70;;;;;;5116147;28;20451;-72
2023/10/08 04:00:14;;;;;;;9.63;4.40;;;16.20;49.70;;;;;;5115967;28;20444;-72
2023/10/08 04:02:46;;;;;;;9.00;4.27;;;16.20;49.60;;;;;;5115608;28;20476;-72
2023/10/08 04:05:21;;;;;;;11.73;4.60;;;16.20;49.50;;;;;;5116411;28;20499;-72
2023/10/08 04:11:07;;;;;;;14.93;4.77;;;16.20;49.70;;;;;;5095337;28;20873;-72
2023/10/08 04:13:28;;;;;;;10.63;4.47;;;16.10;49.50;;;;;;5105397;28;20442;-72
2023/10/08 04:15:55;;;;;;;11.50;5.30;;;16.20;49.50;;;;;;5115936;28;20522;-72
2023/10/08 04:18:22;;;;;;;12.47;5.30;;;16.20;49.60;;;;;;5115610;28;20977;-72
2023/10/08 04:21:04;;;;;;;11.80;5.00;;;16.20;49.70;;;;;;5115490;28;20978;-72
2023/10/08 04:23:31;;;;;;;11.60;5.47;;;16.10;49.60;;;;;;5115533;28;20497;-72
2023/10/08 04:25:58;;;;;;;13.17;5.47;;;16.00;49.50;;;;;;5115557;28;20486;-72
2023/10/08 04:28:28;;;;;;;10.80;4.93;;;16.00;49.50;;;;;;5115724;28;20844;-72
2023/10/08 04:31:00;;;;;;;9.40;5.23;;;15.90;49.40;;;;;;5115216;28;20472;-72
2023/10/08 04:33:31;;;;;;;10.63;4.67;;;15.80;49.30;;;;;;5115171;28;21014;-72
2023/10/08 04:36:01;;;;;;;16.10;6.70;;;15.80;49.30;;;;;;5115213;28;20454;-72
2023/10/08 04:38:29;;;;;;;12.50;5.30;;;15.70;49.20;;;;;;5115230;28;20962;-72
2023/10/08 04:41:01;;;;;;;14.10;4.73;;;15.70;49.20;;;;;;5115444;28;20451;-72
2023/10/08 04:43:30;;;;;;;10.27;4.40;;;15.60;49.10;;;;;;5114262;28;20538;-72
2023/10/08 04:45:58;;;;;;;9.87;5.03;;;15.50;49.10;;;;;;5095084;28;20483;-72
2023/10/08 04:48:29;;;;;;;9.10;4.70;;;15.40;49.00;;;;;;5113930;28;21004;-72
2023/10/08 04:50:59;;;;;;;9.97;5.30;;;15.40;52.00;;;;;;5115111;28;20975;-72
2023/10/08 04:53:35;;;;;;;9.03;4.87;;;15.30;54.30;;;;;;5114116;28;20447;-72
2023/10/08 04:56:06;;;;;;;8.87;4.53;;;15.40;53.40;;;;;;5114966;28;20450;-72
2023/10/08 04:58:40;;;;;;;11.70;5.67;;;15.40;52.70;;;;;;5114914;28;20459;-72
2023/10/08 05:01:20;;;;;;;8.83;4.67;;;15.40;51.40;;;;;;5114070;28;20481;-72
2023/10/08 05:06:50;;;;;;;14.70;6.33;;;15.40;52.50;;;;;;5114544;28;20447;-72
2023/10/08 05:09:22;;;;;;;14.53;5.00;;;15.40;55.60;;;;;;5114619;28;20454;-72
2023/10/08 05:14:38;;;;;;;10.03;4.90;;;15.10;57.30;;;;;;5114205;28;20482;-72
2023/10/08 05:17:11;;;;;;;9.73;5.30;;;14.90;57.10;;;;;;5115046;28;20448;-72
2023/10/08 05:19:48;;;;;;;12.97;5.50;;;14.80;57.10;;;;;;5114444;28;20830;-72
2023/10/08 05:22:34;;;;;;;14.53;5.80;;;14.80;59.90;;;;;;5106554;28;20443;-72
2023/10/08 05:25:07;;;;;;;11.13;5.50;;;14.70;62.60;;;;;;5114286;28;20544;-72
2023/10/08 05:27:56;;;;;;;13.40;7.27;;;14.70;64.00;;;;;;5114039;28;20451;-72
2023/10/08 05:30:28;;;;;;;12.80;7.60;;;14.60;65.10;;;;;;5114245;28;20963;-72
2023/10/08 05:33:23;;;;;;;14.73;6.63;;;14.50;65.10;;;;;;5113105;28;20454;-72
2023/10/08 05:35:54;;;;;;;11.13;7.40;;;14.50;65.10;;;;;;5113784;28;20456;-72
2023/10/08 05:38:38;;;;;;;15.00;8.70;;;14.50;65.10;;;;;;5113630;28;20461;-72
2023/10/08 05:41:16;;;;;;;13.43;7.17;;;14.40;65.00;;;;;;5104875;28;20859;-72
2023/10/08 05:43:55;;;;;;;10.53;8.67;;;14.40;65.00;;;;;;5111192;28;20888;-72
2023/10/08 05:46:51;;;;;;;13.60;7.87;;;14.50;65.10;;;;;;5106556;28;20454;-72
2023/10/08 05:49:38;;;;;;;11.73;7.20;;;14.50;65.10;;;;;;5105299;28;20463;-72
2023/10/08 05:52:25;;;;;;;14.33;8.27;;;14.60;65.20;;;;;;5113810;28;20505;-72
2023/10/08 05:55:15;;;;;;;16.10;8.43;;;14.70;65.30;;;;;;5113041;27;20440;-72
2023/10/08 05:57:52;;;;;;;16.73;8.03;;;14.70;65.30;;;;;;5114404;28;20480;-72
2023/10/08 06:03:31;;;;;;;22.20;8.87;;;14.70;65.30;;;;;;5088199;28;20446;-72
2023/10/08 06:08:51;;;;;;;18.53;10.03;;;14.70;65.30;;;;;;5095205;28;20442;-72
2023/10/08 06:11:36;;;;;;;15.83;10.80;;;14.60;66.60;;;;;;5112655;28;20524;-72
2023/10/08 06:14:13;;;;;;;21.37;9.40;;;14.60;68.80;;;;;;5111995;28;20448;-72
2023/10/08 06:16:44;;;;;;;13.17;7.93;;;14.70;65.30;;;;;;5112647;28;21035;-72
2023/10/08 06:19:12;;;;;;;13.63;8.07;;;14.80;65.30;;;;;;5112039;28;20466;-72
2023/10/08 06:21:40;;;;;;;13.47;6.40;;;14.90;65.40;;;;;;5112664;28;20511;-72
2023/10/08 06:24:11;;;;;;;15.90;7.43;;;15.00;65.60;;;;;;5112946;28;20494;-72
2023/10/08 06:26:42;;;;;;;12.50;6.20;;;15.10;65.70;;;;;;5113330;28;20873;-72
2023/10/08 06:29:27;;;;;;;14.30;5.80;;;15.20;65.70;;;;;;5112573;28;20451;-72
2023/10/08 06:31:55;;;;;;;11.00;5.80;;;15.30;65.80;;;;;;5113105;28;20872;-72
2023/10/08 06:34:25;;;;;;;16.57;5.83;;;15.40;65.90;;;;;;5112519;27;20936;-72
2023/10/08 06:36:53;;;;;;;13.33;5.87;;;15.50;63.10;;;;;;5112301;28;20482;-73
2023/10/08 06:39:25;;;;;;;13.00;6.63;;;15.60;61.50;;;;;;5113338;28;20449;-72
2023/10/08 06:41:54;;;;;;;12.10;6.93;;;15.70;60.60;;;;;;5112901;28;20989;-72
2023/10/08 06:44:24;;;;;;;12.07;5.27;;;15.80;59.40;;;;;;5112728;28;20448;-72
2023/10/08 06:46:54;;;;;;;16.63;6.33;;;15.80;58.00;;;;;;5112801;28;20450;-72
2023/10/08 06:49:23;;;;;;;12.70;7.33;;;15.90;58.10;;;;;;5113281;28;20554;-72
2023/10/08 06:51:51;;;;;;;9.97;5.10;;;15.90;59.00;;;;;;5112828;28;20479;-72
2023/10/08 06:54:19;;;;;;;11.73;6.67;;;16.00;58.40;;;;;;5112630;28;20526;-72
2023/10/08 06:56:51;;;;;;;11.63;5.63;;;16.00;59.80;;;;;;5112902;28;20458;-72
2023/10/08 06:59:18;;;;;;;13.20;5.53;;;16.10;58.50;;;;;;5112546;28;20440;-72
2023/10/08 07:01:47;;;;;;;12.30;6.00;;;16.20;58.50;;;;;;5112300;28;20504;-72
2023/10/08 07:04:15;;;;;;;16.70;8.20;;;16.20;59.10;;;;;;5111442;28;20483;-72
2023/10/08 07:06:42;;;;;;;12.10;6.00;;;16.30;61.00;;;;;;5111872;28;20483;-72
2023/10/08 07:09:22;;;;;;;12.00;5.57;;;16.30;58.50;;;;;;5110821;28;20480;-72
2023/10/08 07:11:54;;;;;;;12.63;5.60;;;16.40;60.50;;;;;;5111611;28;20967;-72
2023/10/08 07:14:22;;;;;;;19.60;6.40;;;16.40;62.40;;;;;;5111891;28;20444;-72
2023/10/08 07:16:54;;;;;;;12.30;5.90;;;16.40;58.50;;;;;;5112045;28;20451;-72
2023/10/08 07:19:24;;;;;;;11.77;5.50;;;16.50;58.60;;;;;;5111224;28;20453;-72
2023/10/08 07:21:54;;;;;;;10.73;6.47;;;16.50;58.60;;;;;;5111878;28;20494;-72
2023/10/08 07:24:22;;;;;;;14.70;7.67;;;16.60;58.70;;;;;;5112293;28;20467;-72
2023/10/08 07:26:55;;;;;;;13.60;6.27;;;16.70;59.60;;;;;;5112758;28;20496;-75
2023/10/08 07:29:25;;;;;;;13.95;7.38;;;16.70;58.80;;;;;;5111397;28;20474;-75
2023/10/08 07:31:53;;;;;;;16.23;7.07;;;16.80;58.90;;;;;;5112363;28;20218;-75
2023/10/08 07:34:25;;;;;;;13.60;6.17;;;16.80;58.90;;;;;;5112215;28;20447;-72
2023/10/08 07:36:54;;;;;;;12.60;6.50;;;16.80;58.90;;;;;;5112011;28;20484;-72
2023/10/08 07:39:26;;;;;;;20.30;10.23;;;16.80;58.90;;;;;;5111417;28;20461;-72
2023/10/08 07:41:55;;;;;;;16.07;7.73;;;17.00;59.10;;;;;;5112199;28;20594;-72
2023/10/08 07:44:22;;;;;;;14.93;7.13;;;17.00;59.10;;;;;;5112310;28;20452;-72
2023/10/08 07:46:50;;;;;;;12.83;5.43;;;17.10;59.20;;;;;;5112086;28;20444;-72
2023/10/08 07:49:19;;;;;;;19.00;6.53;;;17.10;59.00;;;;;;5111730;28;20480;-72
2023/10/08 07:51:50;;;;;;;16.00;6.70;;;17.20;59.30;;;;;;5112382;28;20533;-72
2023/10/08 07:54:19;;;;;;;13.47;6.63;;;17.20;59.30;;;;;;5112251;28;20505;-72
2023/10/08 07:56:48;;;;;;;14.17;6.87;;;17.30;59.40;;;;;;5112396;28;20444;-72
2023/10/08 07:59:16;;;;;;;14.60;7.07;;;17.30;59.40;;;;;;5112254;28;20450;-72
2023/10/08 08:01:43;;;;;;;13.50;6.27;;;17.30;56.60;;;;;;5112064;28;20540;-72
2023/10/08 08:04:21;;;;;;;12.33;5.27;;;17.30;60.20;;;;;;5112355;28;20444;-72
2023/10/08 08:06:50;;;;;;;13.50;5.27;;;17.20;59.20;;;;;;5111869;28;20459;-72
2023/10/08 08:09:21;;;;;;;17.20;5.73;;;17.00;59.00;;;;;;5111659;28;20444;-72
2023/10/08 08:11:50;;;;;;;12.50;5.83;;;17.00;59.20;;;;;;5111520;28;20600;-72
2023/10/08 08:14:17;;;;;;;11.77;5.67;;;17.10;59.20;;;;;;5111629;28;21347;-73
2023/10/08 08:16:48;;;;;;;15.70;6.23;;;17.20;59.20;;;;;;5111970;28;20873;-72
2023/10/08 08:19:16;;;;;;;17.93;7.90;;;17.40;59.40;;;;;;5114555;28;20582;-72
2023/10/08 08:21:47;;;;;;;13.53;6.60;;;17.50;59.50;;;;;;5116008;28;20856;-72
2023/10/08 08:24:28;;;;;;;11.30;5.50;;;17.70;57.80;;;;;;5115795;28;20491;-72
2023/10/08 08:27:08;;;;;;;13.63;5.37;;;17.60;54.50;;;;;;5115837;28;20536;-72
2023/10/08 08:29:44;;;;;;;14.63;5.60;;;17.70;53.80;;;;;;5115721;28;20448;-72
2023/10/08 08:32:12;;;;;;;11.60;5.40;;;17.90;51.30;;;;;;5115574;28;20471;-72
2023/10/08 08:34:43;;;;;;;11.93;5.40;;;17.90;51.30;;;;;;5115409;28;20951;-72
2023/10/08 08:37:11;;;;;;;12.17;6.03;;;18.00;51.40;;;;;;5115628;28;20451;-72
2023/10/08 08:39:41;;;;;;;12.70;5.10;;;18.10;51.50;;;;;;5115406;28;20989;-72
2023/10/08 08:42:08;;;;;;;12.90;5.63;;;18.00;51.30;;;;;;5115444;28;20514;-72
2023/10/08 08:44:39;;;;;;;17.73;6.97;;;18.20;51.50;;;;;;5106245;28;20448;-72
2023/10/08 08:47:10;;;;;;;18.70;7.03;;;18.30;51.60;;;;;;5115547;28;20456;-72
2023/10/08 08:49:38;;;;;;;12.57;6.77;;;18.30;52.50;;;;;;5115193;28;20448;-72
2023/10/08 08:52:05;;;;;;;16.30;7.00;;;18.30;51.70;;;;;;5115241;28;20468;-71
2023/10/08 08:54:32;;;;;;;11.93;6.43;;;18.20;51.50;;;;;;5115387;28;20883;-71
2023/10/08 08:57:04;;;;;;;12.70;6.53;;;18.40;51.80;;;;;;5115359;28;20448;-72
2023/10/08 08:59:32;;;;;;;12.27;6.03;;;18.40;51.70;;;;;;5115253;28;20462;-71
2023/10/08 09:02:00;;;;;;;22.63;6.73;;;18.40;51.80;;;;;;5114718;28;20523;-71
2023/10/08 09:04:32;;;;;;;14.43;7.30;;;18.50;51.80;;;;;;5114478;28;20471;-72
2023/10/08 09:07:03;;;;;;;11.40;5.63;;;18.70;52.00;;;;;;5114350;28;20499;-71
2023/10/08 09:09:34;;;;;;;17.53;7.17;;;18.70;52.00;;;;;;5113918;28;20497;-72
2023/10/08 09:12:04;;;;;;;19.10;6.63;;;18.90;49.30;;;;;;5114572;28;20834;-71
2023/10/08 09:14:33;;;;;;;12.90;6.33;;;19.00;47.90;;;;;;5114477;28;20445;-71
2023/10/08 09:17:04;;;;;;;15.60;8.00;;;19.20;48.00;;;;;;5114831;28;20531;-72
2023/10/08 09:19:36;;;;;;;12.30;6.30;;;19.20;45.90;;;;;;5114409;28;20501;-72
2023/10/08 09:22:04;;;;;;;20.17;7.60;;;19.40;49.60;;;;;;5114597;28;20440;-71
2023/10/08 09:24:33;;;;;;;18.03;8.63;;;19.40;43.80;;;;;;5114528;28;20463;-72
2023/10/08 09:27:01;;;;;;;13.20;5.87;;;19.80;45.90;;;;;;5114595;28;20547;-71
2023/10/08 09:29:30;;;;;;;16.73;8.17;;;19.70;44.10;;;;;;5114279;28;20450;-72
2023/10/08 09:31:58;;;;;;;15.67;7.70;;;19.80;44.20;;;;;;5112638;28;21700;-72
2023/10/08 09:34:28;;;;;;;16.60;7.93;;;19.70;44.10;;;;;;5113724;28;20476;-71
2023/10/08 09:36:59;;;;;;;13.20;6.80;;;19.70;44.10;;;;;;5114000;28;20452;-71
2023/10/08 09:39:29;;;;;;;14.70;7.30;;;19.60;44.00;;;;;;5113624;28;20453;-72
2023/10/08 09:41:57;;;;;;;18.53;7.40;;;19.70;44.10;;;;;;5113691;28;20513;-71
2023/10/08 09:44:25;;;;;;;15.90;8.10;;;19.50;43.90;;;;;;5114194;27;20840;-72
2023/10/08 09:46:59;;;;;;;15.33;7.60;;;19.70;44.10;;;;;;5114017;28;20607;-72
2023/10/08 09:49:32;;;;;;;16.83;7.30;;;19.90;44.30;;;;;;5114078;28;20525;-72
2023/10/08 09:52:02;;;;;;;16.20;8.17;;;20.00;40.40;;;;;;5113958;28;20468;-72
2023/10/08 09:54:33;;;;;;;16.57;8.20;;;20.10;41.40;;;;;;5113594;28;20449;-72
2023/10/08 09:57:00;;;;;;;14.43;7.23;;;20.10;42.10;;;;;;5113645;28;20448;-71
2023/10/08 09:59:29;;;;;;;15.23;6.53;;;20.30;44.50;;;;;;5113532;28;20535;-72
2023/10/08 10:02:00;;;;;;;14.83;7.60;;;20.40;36.80;;;;;;5113849;28;20440;-72
2023/10/08 10:04:31;;;;;;;17.83;6.60;;;20.50;40.30;;;;;;5112997;27;20939;-71
2023/10/08 10:06:58;;;;;;;21.93;9.37;;;20.40;40.20;;;;;;5113587;28;20448;-72
2023/10/08 10:09:26;;;;;;;20.33;9.30;;;20.40;40.50;;;;;;5113702;28;20448;-72
2023/10/08 10:11:56;;;;;;;22.63;9.57;;;20.40;41.70;;;;;;5113048;28;20564;-72
2023/10/08 10:14:24;;;;;;;19.37;8.60;;;20.70;36.00;;;;;;5113652;28;20452;-72
2023/10/08 10:19:47;;;;;;;20.73;8.63;;;20.50;37.30;;;;;;5148562;27;20891;-71
2023/10/08 10:22:16;;;;;;;20.50;9.60;;;20.50;40.30;;;;;;5125344;27;20550;-71
2023/10/08 10:24:45;;;;;;;18.80;10.10;;;20.70;36.00;;;;;;5136689;27;20470;-71
2023/10/08 10:27:14;;;;;;;18.30;8.80;;;21.30;36.50;;;;;;5133122;27;20941;-71
2023/10/08 10:29:43;;;;;;;17.00;9.13;;;21.40;36.60;;;;;;5137273;27;20488;-71
2023/10/08 10:32:13;;;;;;;18.50;8.10;;;21.20;36.40;;;;;;5141346;27;20522;-72
2023/10/08 10:34:40;;;;;;;19.27;9.00;;;21.60;36.80;;;;;;5142077;27;20451;-71
2023/10/08 10:37:19;;;;;;;20.30;7.87;;;21.40;36.60;;;;;;5130342;27;20443;-72
2023/10/08 10:39:54;;;;;;;25.10;10.00;;;21.00;36.20;;;;;;5128077;28;20495;-72
2023/10/08 10:42:22;;;;;;;18.93;10.00;;;20.90;36.10;;;;;;5128935;27;20454;-72
2023/10/08 10:44:50;;;;;;;19.73;9.90;;;21.40;36.60;;;;;;5129368;27;20805;-72
2023/10/08 10:47:42;;;;;;;25.00;9.93;;;21.70;36.80;;;;;;5128825;28;20454;-72
2023/10/08 10:50:26;;;;;;;18.23;10.10;;;21.70;36.90;;;;;;5123040;27;20452;-72
2023/10/08 10:52:55;;;;;;;23.63;10.73;;;22.10;36.90;;;;;;5124267;27;20443;-72
2023/10/08 10:55:31;;;;;;;16.73;8.33;;;22.10;28.60;;;;;;5129121;27;20819;-72
2023/10/08 10:58:04;;;;;;;14.63;8.90;;;21.90;30.90;;;;;;5122959;27;20482;-72
2023/10/08 11:00:57;;;;;;;19.60;9.97;;;22.00;28.80;;;;;;5128786;27;20450;-72
2023/10/08 11:03:23;;;;;;;18.57;10.10;;;22.30;28.70;;;;;;5128276;28;20459;-73
2023/10/08 11:05:54;;;;;;;19.97;9.80;;;22.60;28.90;;;;;;5128467;27;20448;-72
2023/10/08 11:08:24;;;;;;;20.53;9.67;;;22.90;29.10;;;;;;5128473;27;20447;-72
2023/10/08 11:10:53;;;;;;;28.33;10.17;;;22.80;29.00;;;;;;5127102;27;20850;-72
2023/10/08 11:13:21;;;;;;;19.67;9.30;;;23.00;29.20;;;;;;5134671;27;20451;-72
2023/10/08 11:15:51;;;;;;;25.07;10.43;;;23.30;29.40;;;;;;5133934;27;20446;-72
2023/10/08 11:18:20;;;;;;;22.80;10.40;;;22.90;29.10;;;;;;5131286;27;21130;-72
2023/10/08 11:20:53;;;;;;;17.93;8.50;;;22.90;29.10;;;;;;5126906;27;20938;-72
2023/10/08 11:23:37;;;;;;;29.17;12.50;;;23.10;29.30;;;;;;5136884;27;21010;-72
2023/10/08 11:26:05;;;;;;;15.60;8.73;;;22.70;29.00;;;;;;5124089;28;20516;-71
2023/10/08 11:28:35;;;;;;;22.03;10.27;;;22.30;28.70;;;;;;5128882;27;20454;-72
2023/10/08 11:31:07;;;;;;;21.13;10.17;;;22.30;28.70;;;;;;5115628;28;20448;-72
2023/10/08 11:33:37;;;;;;;17.20;9.90;;;22.20;30.70;;;;;;5115335;28;20456;-72
2023/10/08 11:36:06;;;;;;;21.20;11.07;;;21.90;29.20;;;;;;5115563;28;20441;-71
2023/10/08 11:38:42;;;;;;;20.70;10.60;;;22.00;37.20;;;;;;5115596;28;20979;-72
2023/10/08 11:41:20;;;;;;;25.17;12.40;;;22.20;34.80;;;;;;5115182;28;20447;-72
2023/10/08 11:43:53;;;;;;;24.40;10.30;;;22.20;37.40;;;;;;5110278;27;20809;-72
2023/10/08 11:46:32;;;;;;;22.33;10.57;;;21.90;37.00;;;;;;5113724;27;20451;-72
2023/10/08 11:49:04;;;;;;;29.57;11.70;;;21.70;36.90;;;;;;5117963;27;20451;-71
2023/10/08 11:51:33;;;;;;;25.37;11.60;;;21.70;36.90;;;;;;5116445;27;20506;-72
2023/10/08 11:54:01;;;;;;;22.13;9.63;;;21.90;37.10;;;;;;5114466;28;20506;-72
2023/10/08 11:56:29;;;;;;;19.30;10.60;;;22.10;37.30;;;;;;5114612;28;20565;-72
2023/10/08 11:58:57;;;;;;;19.93;10.57;;;22.10;37.30;;;;;;5115103;28;20508;-71
2023/10/08 12:01:26;;;;;;;19.80;11.53;;;22.40;37.30;;;;;;5114968;28;20538;-71
2023/10/08 12:03:59;;;;;;;24.70;11.60;;;22.30;35.50;;;;;;5114962;28;20457;-72
2023/10/08 12:06:29;;;;;;;20.43;10.53;;;22.30;32.40;;;;;;5114763;28;20946;-72
2023/10/08 12:08:58;;;;;;;20.17;11.07;;;22.00;29.80;;;;;;5115188;28;20448;-72
2023/10/08 12:11:31;;;;;;;30.30;12.47;;;22.20;36.30;;;;;;5114125;28;20449;-72
2023/10/08 12:13:59;;;;;;;25.90;11.47;;;21.90;37.80;;;;;;5114470;27;20915;-72
2023/10/08 12:16:29;;;;;;;20.93;10.43;;;22.00;37.20;;;;;;5114780;28;20444;-72
2023/10/08 12:18:59;;;;;;;22.13;12.30;;;21.70;36.90;;;;;;5114216;27;20476;-72
2023/10/08 12:21:29;;;;;;;20.57;10.90;;;21.80;37.00;;;;;;5114628;28;20444;-72
2023/10/08 12:23:56;;;;;;;30.27;12.33;;;21.60;36.80;;;;;;5114468;28;20444;-71
2023/10/08 12:26:23;;;;;;;23.87;12.87;;;21.30;36.50;;;;;;5114591;28;20816;-72
2023/10/08 12:28:53;;;;;;;30.90;12.90;;;21.00;40.50;;;;;;5114723;28;20535;-72
2023/10/08 12:31:22;;;;;;;23.83;10.80;;;21.10;40.30;;;;;;5114249;28;20474;-71
2023/10/08 12:33:53;;;;;;;26.97;11.60;;;20.90;40.00;;;;;;5114350;28;20841;-72
2023/10/08 12:36:22;;;;;;;27.33;11.37;;;21.00;36.30;;;;;;5114552;28;20551;-72
2023/10/08 12:38:57;;;;;;;29.53;12.40;;;21.10;40.30;;;;;;5114140;28;20559;-71
2023/10/08 12:41:25;;;;;;;23.03;12.37;;;21.10;41.00;;;;;;5113427;28;20454;-71
2023/10/08 12:43:53;;;;;;;24.00;11.37;;;21.00;37.80;;;;;;5114194;28;20453;-72
2023/10/08 12:46:23;;;;;;;26.90;13.60;;;21.00;40.80;;;;;;5114179;28;20448;-72
2023/10/08 12:48:53;;;;;;;19.23;9.93;;;21.00;36.30;;;;;;5114060;28;20451;-71
2023/10/08 12:51:23;;;;;;;26.97;10.63;;;21.00;40.30;;;;;;5113891;28;20981;-71
2023/10/08 12:53:58;;;;;;;28.70;12.30;;;21.10;36.30;;;;;;5114050;28;20823;-71
2023/10/08 12:56:31;;;;;;;22.47;12.20;;;21.00;38.60;;;;;;5114099;28;20477;-71
2023/10/08 12:59:04;;;;;;;20.97;11.40;;;21.20;36.80;;;;;;5113799;28;20494;-72
2023/10/08 13:01:31;;;;;;;22.20;12.20;;;21.60;39.40;;;;;;5113642;28;20519;-72
2023/10/08 13:04:00;;;;;;;27.13;12.10;;;22.10;37.30;;;;;;5113248;28;20459;-72
2023/10/08 13:06:29;;;;;;;31.17;13.23;;;22.90;38.00;;;;;;5113400;28;20449;-71
2023/10/08 13:08:56;;;;;;;25.10;12.87;;;23.70;29.70;;;;;;5113329;28;20476;-72
2023/10/08 13:11:26;;;;;;;28.67;13.20;;;23.70;29.70;;;;;;5113003;28;20444;-72
2023/10/08 13:13:56;;;;;;;29.73;12.83;;;23.70;29.70;;;;;;5113024;28;20448;-72